sensor_id;sensor_type;location;lat;lon;timestamp;P1;durP1;ratioP1;P2;durP2;ratioP2
9986;SDS011;5033;46.310;11.214;2023-02-12T00:00:31;4.65;;;4.25;;
9986;SDS011;5033;46.310;11.214;2023-02-12T00:02:58;4.18;;;3.88;;
9986;SDS011;5033;46.310;11.214;2023-02-12T00:05:25;5.65;;;5.25;;
9986;SDS011;5033;46.310;11.214;2023-02-12T00:07:54;6.15;;;5.65;;
9986;SDS011;5033;46.310;11.214;2023-02-12T00:10:21;5.30;;;4.82;;
9986;SDS011;5033;46.310;11.214;2023-02-12T00:12:48;5.22;;;4.85;;
9986;SDS011;5033;46.310;11.214;2023-02-12T00:15:15;5.22;;;4.82;;
9986;SDS011;5033;46.310;11.214;2023-02-12T00:17:42;5.28;;;4.80;;
9986;SDS011;5033;46.310;11.214;2023-02-12T00:20:09;4.45;;;4.15;;
9986;SDS011;5033;46.310;11.214;2023-02-12T00:22:37;4.90;;;4.50;;
9986;SDS011;5033;46.310;11.214;2023-02-12T00:25:06;4.82;;;4.53;;
9986;SDS011;5033;46.310;11.214;2023-02-12T00:27:34;4.60;;;4.30;;
9986;SDS011;5033;46.310;11.214;2023-02-12T00:30:01;4.25;;;3.95;;
9986;SDS011;5033;46.310;11.214;2023-02-12T00:32:28;4.72;;;4.32;;
9986;SDS011;5033;46.310;11.214;2023-02-12T00:34:56;5.72;;;5.22;;
9986;SDS011;5033;46.310;11.214;2023-02-12T00:37:22;5.43;;;4.93;;
9986;SDS011;5033;46.310;11.214;2023-02-12T00:39:49;4.75;;;4.45;;
9986;SDS011;5033;46.310;11.214;2023-02-12T00:42:18;5.05;;;4.75;;
9986;SDS011;5033;46.310;11.214;2023-02-12T00:44:45;6.53;;;6.03;;
9986;SDS011;5033;46.310;11.214;2023-02-12T00:47:12;5.75;;;5.35;;
9986;SDS011;5033;46.310;11.214;2023-02-12T00:49:41;5.95;;;5.55;;
9986;SDS011;5033;46.310;11.214;2023-02-12T00:52:08;4.88;;;4.53;;
9986;SDS011;5033;46.310;11.214;2023-02-12T00:54:35;5.38;;;4.97;;
9986;SDS011;5033;46.310;11.214;2023-02-12T00:57:02;5.15;;;4.75;;
9986;SDS011;5033;46.310;11.214;2023-02-12T00:59:31;4.95;;;4.63;;
9986;SDS011;5033;46.310;11.214;2023-02-12T01:02:00;5.30;;;4.90;;
9986;SDS011;5033;46.310;11.214;2023-02-12T01:04:27;4.80;;;4.40;;
9986;SDS011;5033;46.310;11.214;2023-02-12T01:06:54;5.13;;;4.72;;
9986;SDS011;5033;46.310;11.214;2023-02-12T01:09:21;5.05;;;4.53;;
9986;SDS011;5033;46.310;11.214;2023-02-12T01:11:48;4.50;;;4.18;;
9986;SDS011;5033;46.310;11.214;2023-02-12T01:14:15;4.45;;;4.15;;
9986;SDS011;5033;46.310;11.214;2023-02-12T01:16:44;4.45;;;4.15;;
9986;SDS011;5033;46.310;11.214;2023-02-12T01:19:11;4.40;;;4.10;;
9986;SDS011;5033;46.310;11.214;2023-02-12T01:21:38;4.38;;;4.07;;
9986;SDS011;5033;46.310;11.214;2023-02-12T01:24:05;4.40;;;4.10;;
9986;SDS011;5033;46.310;11.214;2023-02-12T01:26:33;3.40;;;3.20;;
9986;SDS011;5033;46.310;11.214;2023-02-12T01:29:00;4.50;;;4.20;;
9986;SDS011;5033;46.310;11.214;2023-02-12T01:31:31;3.95;;;3.75;;
9986;SDS011;5033;46.310;11.214;2023-02-12T01:34:04;3.85;;;3.65;;
9986;SDS011;5033;46.310;11.214;2023-02-12T01:36:32;4.50;;;4.20;;
9986;SDS011;5033;46.310;11.214;2023-02-12T01:38:59;3.70;;;3.50;;
9986;SDS011;5033;46.310;11.214;2023-02-12T01:41:29;4.25;;;3.92;;
9986;SDS011;5033;46.310;11.214;2023-02-12T01:44:04;4.20;;;3.90;;
9986;SDS011;5033;46.310;11.214;2023-02-12T01:46:40;4.50;;;4.20;;
9986;SDS011;5033;46.310;11.214;2023-02-12T01:49:10;4.28;;;3.97;;
9986;SDS011;5033;46.310;11.214;2023-02-12T01:51:41;4.10;;;3.90;;
9986;SDS011;5033;46.310;11.214;2023-02-12T01:54:11;3.92;;;3.63;;
9986;SDS011;5033;46.310;11.214;2023-02-12T01:56:40;4.18;;;3.88;;
9986;SDS011;5033;46.310;11.214;2023-02-12T01:59:08;3.90;;;3.70;;
9986;SDS011;5033;46.310;11.214;2023-02-12T02:01:36;4.30;;;4.00;;
9986;SDS011;5033;46.310;11.214;2023-02-12T02:04:04;4.53;;;4.22;;
9986;SDS011;5033;46.310;11.214;2023-02-12T02:06:41;4.38;;;4.05;;
9986;SDS011;5033;46.310;11.214;2023-02-12T02:09:13;4.80;;;4.45;;
9986;SDS011;5033;46.310;11.214;2023-02-12T02:11:42;5.53;;;5.03;;
9986;SDS011;5033;46.310;11.214;2023-02-12T02:14:27;5.20;;;4.80;;
9986;SDS011;5033;46.310;11.214;2023-02-12T02:17:04;5.50;;;5.10;;
9986;SDS011;5033;46.310;11.214;2023-02-12T02:19:47;5.28;;;4.88;;
9986;SDS011;5033;46.310;11.214;2023-02-12T02:22:46;5.10;;;4.70;;
9986;SDS011;5033;46.310;11.214;2023-02-12T02:25:23;5.20;;;4.80;;
9986;SDS011;5033;46.310;11.214;2023-02-12T02:28:16;7.13;;;4.80;;
9986;SDS011;5033;46.310;11.214;2023-02-12T02:31:02;5.38;;;4.88;;
9986;SDS011;5033;46.310;11.214;2023-02-12T02:33:35;4.85;;;4.53;;
9986;SDS011;5033;46.310;11.214;2023-02-12T02:36:12;4.90;;;4.50;;
9986;SDS011;5033;46.310;11.214;2023-02-12T02:38:45;4.93;;;4.60;;
9986;SDS011;5033;46.310;11.214;2023-02-12T02:41:17;5.45;;;5.03;;
9986;SDS011;5033;46.310;11.214;2023-02-12T02:43:47;4.40;;;4.10;;
9986;SDS011;5033;46.310;11.214;2023-02-12T02:46:19;5.18;;;4.78;;
9986;SDS011;5033;46.310;11.214;2023-02-12T02:48:56;5.35;;;4.85;;
9986;SDS011;5033;46.310;11.214;2023-02-12T02:51:28;5.35;;;4.95;;
9986;SDS011;5033;46.310;11.214;2023-02-12T02:54:01;4.55;;;4.25;;
9986;SDS011;5033;46.310;11.214;2023-02-12T02:56:31;4.30;;;4.00;;
9986;SDS011;5033;46.310;11.214;2023-02-12T02:59:02;4.35;;;4.05;;
9986;SDS011;5033;46.310;11.214;2023-02-12T03:01:35;4.43;;;4.13;;
9986;SDS011;5033;46.310;11.214;2023-02-12T03:04:08;4.05;;;3.75;;
9986;SDS011;5033;46.310;11.214;2023-02-12T03:06:42;3.90;;;3.70;;
9986;SDS011;5033;46.310;11.214;2023-02-12T03:09:14;3.90;;;3.70;;
9986;SDS011;5033;46.310;11.214;2023-02-12T03:11:44;3.65;;;3.45;;
9986;SDS011;5033;46.310;11.214;2023-02-12T03:14:13;3.35;;;3.15;;
9986;SDS011;5033;46.310;11.214;2023-02-12T03:16:49;4.10;;;3.90;;
9986;SDS011;5033;46.310;11.214;2023-02-12T03:19:20;4.00;;;3.72;;
9986;SDS011;5033;46.310;11.214;2023-02-12T03:21:50;3.58;;;3.38;;
9986;SDS011;5033;46.310;11.214;2023-02-12T03:24:23;3.38;;;3.15;;
9986;SDS011;5033;46.310;11.214;2023-02-12T03:26:56;3.30;;;3.10;;
9986;SDS011;5033;46.310;11.214;2023-02-12T03:29:28;3.45;;;3.25;;
9986;SDS011;5033;46.310;11.214;2023-02-12T03:31:59;3.75;;;3.55;;
9986;SDS011;5033;46.310;11.214;2023-02-12T03:34:38;3.80;;;3.50;;
9986;SDS011;5033;46.310;11.214;2023-02-12T03:37:13;3.50;;;3.30;;
9986;SDS011;5033;46.310;11.214;2023-02-12T03:39:48;3.50;;;3.30;;
9986;SDS011;5033;46.310;11.214;2023-02-12T03:42:21;2.90;;;2.80;;
9986;SDS011;5033;46.310;11.214;2023-02-12T03:44:55;4.07;;;3.83;;
9986;SDS011;5033;46.310;11.214;2023-02-12T03:47:28;4.50;;;4.20;;
9986;SDS011;5033;46.310;11.214;2023-02-12T03:50:05;4.53;;;4.22;;
9986;SDS011;5033;46.310;11.214;2023-02-12T03:52:36;4.35;;;3.95;;
9986;SDS011;5033;46.310;11.214;2023-02-12T03:55:04;4.10;;;3.80;;
9986;SDS011;5033;46.310;11.214;2023-02-12T03:57:33;3.60;;;3.30;;
9986;SDS011;5033;46.310;11.214;2023-02-12T04:00:05;4.05;;;3.75;;
9986;SDS011;5033;46.310;11.214;2023-02-12T04:02:38;3.60;;;3.40;;
9986;SDS011;5033;46.310;11.214;2023-02-12T04:05:06;4.60;;;4.20;;
9986;SDS011;5033;46.310;11.214;2023-02-12T04:07:41;4.80;;;4.50;;
9986;SDS011;5033;46.310;11.214;2023-02-12T04:10:08;4.78;;;4.38;;
9986;SDS011;5033;46.310;11.214;2023-02-12T04:12:38;4.70;;;4.30;;
9986;SDS011;5033;46.310;11.214;2023-02-12T04:15:15;3.85;;;3.55;;
9986;SDS011;5033;46.310;11.214;2023-02-12T04:18:00;4.60;;;4.20;;
9986;SDS011;5033;46.310;11.214;2023-02-12T04:20:38;4.80;;;4.43;;
9986;SDS011;5033;46.310;11.214;2023-02-12T04:23:16;4.93;;;4.53;;
9986;SDS011;5033;46.310;11.214;2023-02-12T04:25:51;4.25;;;3.85;;
9986;SDS011;5033;46.310;11.214;2023-02-12T04:28:32;4.72;;;4.40;;
9986;SDS011;5033;46.310;11.214;2023-02-12T04:31:08;4.57;;;4.25;;
9986;SDS011;5033;46.310;11.214;2023-02-12T04:33:45;3.72;;;3.53;;
9986;SDS011;5033;46.310;11.214;2023-02-12T04:36:18;4.32;;;3.92;;
9986;SDS011;5033;46.310;11.214;2023-02-12T04:38:50;4.22;;;3.90;;
9986;SDS011;5033;46.310;11.214;2023-02-12T04:41:23;4.13;;;3.83;;
9986;SDS011;5033;46.310;11.214;2023-02-12T04:43:51;3.85;;;3.55;;
9986;SDS011;5033;46.310;11.214;2023-02-12T04:46:18;4.45;;;4.15;;
9986;SDS011;5033;46.310;11.214;2023-02-12T04:48:49;3.80;;;3.60;;
9986;SDS011;5033;46.310;11.214;2023-02-12T04:51:19;3.92;;;3.67;;
9986;SDS011;5033;46.310;11.214;2023-02-12T04:53:46;3.60;;;3.40;;
9986;SDS011;5033;46.310;11.214;2023-02-12T04:56:13;4.07;;;3.78;;
9986;SDS011;5033;46.310;11.214;2023-02-12T04:58:41;3.83;;;3.53;;
9986;SDS011;5033;46.310;11.214;2023-02-12T05:01:08;4.22;;;3.92;;
9986;SDS011;5033;46.310;11.214;2023-02-12T05:03:35;4.40;;;4.10;;
9986;SDS011;5033;46.310;11.214;2023-02-12T05:06:06;3.40;;;3.20;;
9986;SDS011;5033;46.310;11.214;2023-02-12T05:08:34;4.25;;;4.00;;
9986;SDS011;5033;46.310;11.214;2023-02-12T05:11:05;4.00;;;3.70;;
9986;SDS011;5033;46.310;11.214;2023-02-12T05:13:32;3.60;;;3.35;;
9986;SDS011;5033;46.310;11.214;2023-02-12T05:16:02;4.20;;;3.90;;
9986;SDS011;5033;46.310;11.214;2023-02-12T05:18:29;3.67;;;3.47;;
9986;SDS011;5033;46.310;11.214;2023-02-12T05:20:57;3.90;;;3.70;;
9986;SDS011;5033;46.310;11.214;2023-02-12T05:23:27;3.80;;;3.60;;
9986;SDS011;5033;46.310;11.214;2023-02-12T05:25:57;3.67;;;3.47;;
9986;SDS011;5033;46.310;11.214;2023-02-12T05:28:24;4.07;;;3.80;;
9986;SDS011;5033;46.310;11.214;2023-02-12T05:30:52;3.63;;;3.42;;
9986;SDS011;5033;46.310;11.214;2023-02-12T05:33:19;4.55;;;4.25;;
9986;SDS011;5033;46.310;11.214;2023-02-12T05:35:46;3.95;;;3.65;;
9986;SDS011;5033;46.310;11.214;2023-02-12T05:38:14;4.32;;;3.92;;
9986;SDS011;5033;46.310;11.214;2023-02-12T05:40:42;3.75;;;3.55;;
9986;SDS011;5033;46.310;11.214;2023-02-12T05:43:09;3.80;;;3.60;;
9986;SDS011;5033;46.310;11.214;2023-02-12T05:45:36;3.47;;;3.28;;
9986;SDS011;5033;46.310;11.214;2023-02-12T05:48:05;2.90;;;2.80;;
9986;SDS011;5033;46.310;11.214;2023-02-12T05:50:32;3.10;;;2.90;;
9986;SDS011;5033;46.310;11.214;2023-02-12T05:52:59;3.45;;;3.25;;
9986;SDS011;5033;46.310;11.214;2023-02-12T05:55:27;3.33;;;3.13;;
9986;SDS011;5033;46.310;11.214;2023-02-12T05:57:55;3.60;;;3.40;;
9986;SDS011;5033;46.310;11.214;2023-02-12T06:00:22;3.30;;;3.10;;
9986;SDS011;5033;46.310;11.214;2023-02-12T06:02:50;3.58;;;3.38;;
9986;SDS011;5033;46.310;11.214;2023-02-12T06:05:17;3.80;;;3.60;;
9986;SDS011;5033;46.310;11.214;2023-02-12T06:07:43;4.35;;;3.33;;
9986;SDS011;5033;46.310;11.214;2023-02-12T06:10:10;3.58;;;3.38;;
9986;SDS011;5033;46.310;11.214;2023-02-12T06:12:37;3.33;;;3.13;;
9986;SDS011;5033;46.310;11.214;2023-02-12T06:15:06;3.20;;;3.00;;
9986;SDS011;5033;46.310;11.214;2023-02-12T06:17:33;3.03;;;2.92;;
9986;SDS011;5033;46.310;11.214;2023-02-12T06:20:00;3.35;;;3.15;;
9986;SDS011;5033;46.310;11.214;2023-02-12T06:22:28;3.60;;;3.33;;
9986;SDS011;5033;46.310;11.214;2023-02-12T06:24:54;3.30;;;3.20;;
9986;SDS011;5033;46.310;11.214;2023-02-12T06:27:22;3.42;;;3.22;;
9986;SDS011;5033;46.310;11.214;2023-02-12T06:29:48;3.75;;;3.55;;
9986;SDS011;5033;46.310;11.214;2023-02-12T06:32:20;5.35;;;5.03;;
9986;SDS011;5033;46.310;11.214;2023-02-12T06:34:47;4.03;;;3.83;;
9986;SDS011;5033;46.310;11.214;2023-02-12T06:37:14;3.92;;;3.72;;
9986;SDS011;5033;46.310;11.214;2023-02-12T06:39:41;4.80;;;4.40;;
9986;SDS011;5033;46.310;11.214;2023-02-12T06:42:08;4.30;;;4.00;;
9986;SDS011;5033;46.310;11.214;2023-02-12T06:44:35;4.30;;;4.00;;
9986;SDS011;5033;46.310;11.214;2023-02-12T06:47:02;3.47;;;3.28;;
9986;SDS011;5033;46.310;11.214;2023-02-12T06:49:31;3.45;;;3.25;;
9986;SDS011;5033;46.310;11.214;2023-02-12T06:51:58;4.17;;;3.87;;
9986;SDS011;5033;46.310;11.214;2023-02-12T06:54:25;3.58;;;3.38;;
9986;SDS011;5033;46.310;11.214;2023-02-12T06:56:52;3.97;;;3.78;;
9986;SDS011;5033;46.310;11.214;2023-02-12T06:59:19;3.53;;;3.33;;
9986;SDS011;5033;46.310;11.214;2023-02-12T07:01:46;3.50;;;3.30;;
9986;SDS011;5033;46.310;11.214;2023-02-12T07:04:13;2.92;;;2.78;;
9986;SDS011;5033;46.310;11.214;2023-02-12T07:06:42;4.53;;;3.25;;
9986;SDS011;5033;46.310;11.214;2023-02-12T07:09:09;4.85;;;4.45;;
9986;SDS011;5033;46.310;11.214;2023-02-12T07:11:36;4.32;;;4.03;;
9986;SDS011;5033;46.310;11.214;2023-02-12T07:14:03;3.80;;;3.50;;
9986;SDS011;5033;46.310;11.214;2023-02-12T07:16:31;4.70;;;4.40;;
9986;SDS011;5033;46.310;11.214;2023-02-12T07:18:58;5.47;;;5.07;;
9986;SDS011;5033;46.310;11.214;2023-02-12T07:21:24;5.75;;;5.35;;
9986;SDS011;5033;46.310;11.214;2023-02-12T07:23:53;8.75;;;6.85;;
9986;SDS011;5033;46.310;11.214;2023-02-12T07:26:20;11.05;;;6.82;;
9986;SDS011;5033;46.310;11.214;2023-02-12T07:28:47;6.70;;;6.03;;
9986;SDS011;5033;46.310;11.214;2023-02-12T07:31:15;5.60;;;5.03;;
9986;SDS011;5033;46.310;11.214;2023-02-12T07:33:44;8.55;;;5.80;;
9986;SDS011;5033;46.310;11.214;2023-02-12T07:36:12;5.32;;;4.85;;
9986;SDS011;5033;46.310;11.214;2023-02-12T07:38:40;4.82;;;4.43;;
9986;SDS011;5033;46.310;11.214;2023-02-12T07:41:10;4.88;;;4.47;;
9986;SDS011;5033;46.310;11.214;2023-02-12T07:43:38;5.13;;;4.60;;
9986;SDS011;5033;46.310;11.214;2023-02-12T07:46:09;4.88;;;4.47;;
9986;SDS011;5033;46.310;11.214;2023-02-12T07:48:37;4.25;;;3.95;;
9986;SDS011;5033;46.310;11.214;2023-02-12T07:51:05;4.82;;;4.45;;
9986;SDS011;5033;46.310;11.214;2023-02-12T07:53:34;4.72;;;4.32;;
9986;SDS011;5033;46.310;11.214;2023-02-12T07:56:19;6.35;;;4.57;;
9986;SDS011;5033;46.310;11.214;2023-02-12T07:58:48;5.68;;;4.75;;
9986;SDS011;5033;46.310;11.214;2023-02-12T08:01:17;5.03;;;4.63;;
9986;SDS011;5033;46.310;11.214;2023-02-12T08:03:45;5.53;;;5.03;;
9986;SDS011;5033;46.310;11.214;2023-02-12T08:06:14;5.03;;;4.72;;
9986;SDS011;5033;46.310;11.214;2023-02-12T08:08:42;5.90;;;5.18;;
9986;SDS011;5033;46.310;11.214;2023-02-12T08:11:14;5.43;;;4.93;;
9986;SDS011;5033;46.310;11.214;2023-02-12T08:13:41;5.03;;;4.63;;
9986;SDS011;5033;46.310;11.214;2023-02-12T08:16:10;5.60;;;4.68;;
9986;SDS011;5033;46.310;11.214;2023-02-12T08:18:39;5.22;;;4.75;;
9986;SDS011;5033;46.310;11.214;2023-02-12T08:21:07;5.07;;;4.68;;
9986;SDS011;5033;46.310;11.214;2023-02-12T08:23:35;5.10;;;4.60;;
9986;SDS011;5033;46.310;11.214;2023-02-12T08:26:06;5.32;;;4.82;;
9986;SDS011;5033;46.310;11.214;2023-02-12T08:28:37;4.82;;;4.28;;
9986;SDS011;5033;46.310;11.214;2023-02-12T08:31:06;4.60;;;4.20;;
9986;SDS011;5033;46.310;11.214;2023-02-12T08:33:34;4.78;;;4.38;;
9986;SDS011;5033;46.310;11.214;2023-02-12T08:36:02;4.43;;;3.90;;
9986;SDS011;5033;46.310;11.214;2023-02-12T08:38:31;4.65;;;4.25;;
9986;SDS011;5033;46.310;11.214;2023-02-12T08:41:02;4.82;;;4.43;;
9986;SDS011;5033;46.310;11.214;2023-02-12T08:43:30;4.97;;;4.30;;
9986;SDS011;5033;46.310;11.214;2023-02-12T08:46:11;5.28;;;4.78;;
9986;SDS011;5033;46.310;11.214;2023-02-12T08:48:40;5.00;;;4.50;;
9986;SDS011;5033;46.310;11.214;2023-02-12T08:51:09;4.20;;;3.72;;
9986;SDS011;5033;46.310;11.214;2023-02-12T08:53:38;4.80;;;3.65;;
9986;SDS011;5033;46.310;11.214;2023-02-12T08:56:08;4.10;;;3.70;;
9986;SDS011;5033;46.310;11.214;2023-02-12T08:58:36;4.93;;;3.90;;
9986;SDS011;5033;46.310;11.214;2023-02-12T09:01:08;4.28;;;3.97;;
9986;SDS011;5033;46.310;11.214;2023-02-12T09:03:36;4.55;;;4.15;;
9986;SDS011;5033;46.310;11.214;2023-02-12T09:06:03;4.45;;;4.05;;
9986;SDS011;5033;46.310;11.214;2023-02-12T09:08:31;4.18;;;3.88;;
9986;SDS011;5033;46.310;11.214;2023-02-12T09:10:58;4.88;;;4.40;;
9986;SDS011;5033;46.310;11.214;2023-02-12T09:13:25;4.13;;;3.83;;
9986;SDS011;5033;46.310;11.214;2023-02-12T09:15:52;4.40;;;3.88;;
9986;SDS011;5033;46.310;11.214;2023-02-12T09:18:21;4.15;;;3.85;;
9986;SDS011;5033;46.310;11.214;2023-02-12T09:20:48;3.95;;;3.50;;
9986;SDS011;5033;46.310;11.214;2023-02-12T09:23:15;3.85;;;3.45;;
9986;SDS011;5033;46.310;11.214;2023-02-12T09:25:42;3.63;;;3.33;;
9986;SDS011;5033;46.310;11.214;2023-02-12T09:28:11;4.80;;;4.32;;
9986;SDS011;5033;46.310;11.214;2023-02-12T09:30:40;4.78;;;4.35;;
9986;SDS011;5033;46.310;11.214;2023-02-12T09:33:08;7.43;;;4.57;;
9986;SDS011;5033;46.310;11.214;2023-02-12T09:35:37;5.22;;;4.72;;
9986;SDS011;5033;46.310;11.214;2023-02-12T09:38:05;4.82;;;4.43;;
9986;SDS011;5033;46.310;11.214;2023-02-12T09:40:35;6.35;;;5.22;;
9986;SDS011;5033;46.310;11.214;2023-02-12T09:43:16;4.88;;;4.45;;
9986;SDS011;5033;46.310;11.214;2023-02-12T09:45:46;4.63;;;3.90;;
9986;SDS011;5033;46.310;11.214;2023-02-12T09:48:26;4.47;;;4.07;;
9986;SDS011;5033;46.310;11.214;2023-02-12T09:51:10;4.90;;;4.50;;
9986;SDS011;5033;46.310;11.214;2023-02-12T09:53:38;4.78;;;4.28;;
9986;SDS011;5033;46.310;11.214;2023-02-12T09:56:13;4.25;;;3.85;;
9986;SDS011;5033;46.310;11.214;2023-02-12T09:58:43;6.28;;;4.38;;
9986;SDS011;5033;46.310;11.214;2023-02-12T10:01:13;5.35;;;4.60;;
9986;SDS011;5033;46.310;11.214;2023-02-12T10:03:42;5.05;;;4.55;;
9986;SDS011;5033;46.310;11.214;2023-02-12T10:06:12;4.38;;;3.97;;
9986;SDS011;5033;46.310;11.214;2023-02-12T10:08:53;5.65;;;4.40;;
9986;SDS011;5033;46.310;11.214;2023-02-12T10:11:50;4.82;;;4.43;;
9986;SDS011;5033;46.310;11.214;2023-02-12T10:14:25;4.88;;;4.32;;
9986;SDS011;5033;46.310;11.214;2023-02-12T10:17:07;4.78;;;4.38;;
9986;SDS011;5033;46.310;11.214;2023-02-12T10:19:52;4.60;;;4.10;;
9986;SDS011;5033;46.310;11.214;2023-02-12T10:22:37;4.90;;;4.40;;
9986;SDS011;5033;46.310;11.214;2023-02-12T10:25:14;5.28;;;4.78;;
9986;SDS011;5033;46.310;11.214;2023-02-12T10:27:49;5.00;;;4.50;;
9986;SDS011;5033;46.310;11.214;2023-02-12T10:30:19;5.43;;;4.93;;
9986;SDS011;5033;46.310;11.214;2023-02-12T10:32:50;4.00;;;3.70;;
9986;SDS011;5033;46.310;11.214;2023-02-12T10:35:20;4.68;;;4.28;;
9986;SDS011;5033;46.310;11.214;2023-02-12T10:37:51;4.78;;;4.13;;
9986;SDS011;5033;46.310;11.214;2023-02-12T10:40:22;4.05;;;3.65;;
9986;SDS011;5033;46.310;11.214;2023-02-12T10:42:54;3.90;;;3.47;;
9986;SDS011;5033;46.310;11.214;2023-02-12T10:45:24;4.38;;;3.97;;
9986;SDS011;5033;46.310;11.214;2023-02-12T10:48:00;4.47;;;4.10;;
9986;SDS011;5033;46.310;11.214;2023-02-12T10:50:33;4.38;;;3.97;;
9986;SDS011;5033;46.310;11.214;2023-02-12T10:53:11;4.60;;;4.18;;
9986;SDS011;5033;46.310;11.214;2023-02-12T10:55:43;4.28;;;3.88;;
9986;SDS011;5033;46.310;11.214;2023-02-12T10:58:17;4.57;;;3.65;;
9986;SDS011;5033;46.310;11.214;2023-02-12T11:00:48;3.65;;;3.35;;
9986;SDS011;5033;46.310;11.214;2023-02-12T11:03:26;3.53;;;3.22;;
9986;SDS011;5033;46.310;11.214;2023-02-12T11:05:54;3.58;;;3.28;;
9986;SDS011;5033;46.310;11.214;2023-02-12T11:08:31;3.58;;;3.28;;
9986;SDS011;5033;46.310;11.214;2023-02-12T11:11:04;4.13;;;3.42;;
9986;SDS011;5033;46.310;11.214;2023-02-12T11:13:34;4.03;;;3.38;;
9986;SDS011;5033;46.310;11.214;2023-02-12T11:16:02;3.63;;;3.33;;
9986;SDS011;5033;46.310;11.214;2023-02-12T11:18:30;4.65;;;3.90;;
9986;SDS011;5033;46.310;11.214;2023-02-12T11:20:59;4.45;;;3.88;;
9986;SDS011;5033;46.310;11.214;2023-02-12T11:23:29;5.45;;;3.88;;
9986;SDS011;5033;46.310;11.214;2023-02-12T11:25:59;4.50;;;4.10;;
9986;SDS011;5033;46.310;11.214;2023-02-12T11:28:28;7.35;;;3.63;;
9986;SDS011;5033;46.310;11.214;2023-02-12T11:30:58;6.28;;;4.20;;
9986;SDS011;5033;46.310;11.214;2023-02-12T11:33:28;3.45;;;3.13;;
9986;SDS011;5033;46.310;11.214;2023-02-12T11:35:57;3.90;;;3.50;;
9986;SDS011;5033;46.310;11.214;2023-02-12T11:38:32;3.75;;;3.38;;
9986;SDS011;5033;46.310;11.214;2023-02-12T11:41:03;3.13;;;2.83;;
9986;SDS011;5033;46.310;11.214;2023-02-12T11:43:34;3.90;;;3.53;;
9986;SDS011;5033;46.310;11.214;2023-02-12T11:46:04;4.20;;;3.10;;
9986;SDS011;5033;46.310;11.214;2023-02-12T11:48:34;3.42;;;3.13;;
9986;SDS011;5033;46.310;11.214;2023-02-12T11:51:05;2.95;;;2.72;;
9986;SDS011;5033;46.310;11.214;2023-02-12T11:53:36;3.78;;;3.10;;
9986;SDS011;5033;46.310;11.214;2023-02-12T11:56:09;3.13;;;2.83;;
9986;SDS011;5033;46.310;11.214;2023-02-12T11:58:38;2.95;;;2.75;;
9986;SDS011;5033;46.310;11.214;2023-02-12T12:01:11;3.42;;;3.13;;
9986;SDS011;5033;46.310;11.214;2023-02-12T12:03:44;4.18;;;3.10;;
9986;SDS011;5033;46.310;11.214;2023-02-12T12:06:28;2.95;;;2.67;;
9986;SDS011;5033;46.310;11.214;2023-02-12T12:09:00;3.28;;;2.80;;
9986;SDS011;5033;46.310;11.214;2023-02-12T12:11:34;3.10;;;2.80;;
9986;SDS011;5033;46.310;11.214;2023-02-12T12:14:08;2.90;;;2.50;;
9986;SDS011;5033;46.310;11.214;2023-02-12T12:16:43;2.75;;;2.55;;
9986;SDS011;5033;46.310;11.214;2023-02-12T12:19:34;2.70;;;2.50;;
9986;SDS011;5033;46.310;11.214;2023-02-12T12:22:22;3.17;;;2.88;;
9986;SDS011;5033;46.310;11.214;2023-02-12T12:25:09;2.63;;;2.42;;
9986;SDS011;5033;46.310;11.214;2023-02-12T12:27:46;2.90;;;2.40;;
9986;SDS011;5033;46.310;11.214;2023-02-12T12:39:15;2.85;;;2.13;;
9986;SDS011;5033;46.310;11.214;2023-02-12T12:41:53;2.60;;;2.40;;
9986;SDS011;5033;46.310;11.214;2023-02-12T12:44:47;3.10;;;2.40;;
9986;SDS011;5033;46.310;11.214;2023-02-12T12:47:24;2.17;;;2.03;;
9986;SDS011;5033;46.310;11.214;2023-02-12T12:49:57;2.38;;;2.17;;
9986;SDS011;5033;46.310;11.214;2023-02-12T12:52:39;4.18;;;2.70;;
9986;SDS011;5033;46.310;11.214;2023-02-12T12:55:39;3.53;;;2.40;;
9986;SDS011;5033;46.310;11.214;2023-02-12T12:58:19;2.10;;;1.95;;
9986;SDS011;5033;46.310;11.214;2023-02-12T13:01:02;2.20;;;2.00;;
9986;SDS011;5033;46.310;11.214;2023-02-12T13:09:40;2.22;;;2.03;;
9986;SDS011;5033;46.310;11.214;2023-02-12T13:12:29;2.42;;;1.80;;
9986;SDS011;5033;46.310;11.214;2023-02-12T13:15:08;2.00;;;1.90;;
9986;SDS011;5033;46.310;11.214;2023-02-12T13:17:44;2.50;;;1.95;;
9986;SDS011;5033;46.310;11.214;2023-02-12T13:20:18;2.00;;;1.80;;
9986;SDS011;5033;46.310;11.214;2023-02-12T13:22:51;3.25;;;1.83;;
9986;SDS011;5033;46.310;11.214;2023-02-12T13:25:26;1.98;;;1.88;;
9986;SDS011;5033;46.310;11.214;2023-02-12T13:27:56;1.83;;;1.73;;
9986;SDS011;5033;46.310;11.214;2023-02-12T13:30:28;2.35;;;2.15;;
9986;SDS011;5033;46.310;11.214;2023-02-12T13:33:01;2.33;;;2.08;;
9986;SDS011;5033;46.310;11.214;2023-02-12T13:35:32;2.17;;;1.98;;
9986;SDS011;5033;46.310;11.214;2023-02-12T13:38:02;2.03;;;1.92;;
9986;SDS011;5033;46.310;11.214;2023-02-12T13:40:32;2.00;;;1.90;;
9986;SDS011;5033;46.310;11.214;2023-02-12T13:43:04;1.95;;;1.85;;
9986;SDS011;5033;46.310;11.214;2023-02-12T13:45:43;2.90;;;1.80;;
9986;SDS011;5033;46.310;11.214;2023-02-12T13:48:33;2.20;;;2.00;;
9986;SDS011;5033;46.310;11.214;2023-02-12T13:51:13;2.20;;;2.00;;
9986;SDS011;5033;46.310;11.214;2023-02-12T13:53:52;2.03;;;1.88;;
9986;SDS011;5033;46.310;11.214;2023-02-12T13:56:31;7.07;;;2.20;;
9986;SDS011;5033;46.310;11.214;2023-02-12T14:02:23;4.20;;;2.10;;
9986;SDS011;5033;46.310;11.214;2023-02-12T14:05:13;3.20;;;2.00;;
9986;SDS011;5033;46.310;11.214;2023-02-12T14:07:52;2.40;;;2.10;;
9986;SDS011;5033;46.310;11.214;2023-02-12T14:10:22;1.90;;;1.80;;
9986;SDS011;5033;46.310;11.214;2023-02-12T14:12:53;2.03;;;1.92;;
9986;SDS011;5033;46.310;11.214;2023-02-12T14:15:28;2.38;;;1.70;;
9986;SDS011;5033;46.310;11.214;2023-02-12T14:18:19;1.60;;;1.50;;
9986;SDS011;5033;46.310;11.214;2023-02-12T14:20:57;1.75;;;1.65;;
9986;SDS011;5033;46.310;11.214;2023-02-12T14:27:34;1.98;;;1.70;;
9986;SDS011;5033;46.310;11.214;2023-02-12T14:32:55;1.90;;;1.70;;
9986;SDS011;5033;46.310;11.214;2023-02-12T14:35:42;2.58;;;2.38;;
9986;SDS011;5033;46.310;11.214;2023-02-12T14:41:31;1.70;;;1.60;;
9986;SDS011;5033;46.310;11.214;2023-02-12T14:47:12;2.45;;;2.25;;
9986;SDS011;5033;46.310;11.214;2023-02-12T14:49:56;1.92;;;1.83;;
9986;SDS011;5033;46.310;11.214;2023-02-12T14:52:28;1.80;;;1.70;;
9986;SDS011;5033;46.310;11.214;2023-02-12T14:54:58;1.90;;;1.80;;
9986;SDS011;5033;46.310;11.214;2023-02-12T14:57:28;1.95;;;1.85;;
9986;SDS011;5033;46.310;11.214;2023-02-12T14:59:57;1.80;;;1.70;;
9986;SDS011;5033;46.310;11.214;2023-02-12T15:02:29;1.85;;;1.75;;
9986;SDS011;5033;46.310;11.214;2023-02-12T15:05:00;2.10;;;2.00;;
9986;SDS011;5033;46.310;11.214;2023-02-12T15:07:31;3.03;;;2.83;;
9986;SDS011;5033;46.310;11.214;2023-02-12T15:10:06;3.40;;;2.67;;
9986;SDS011;5033;46.310;11.214;2023-02-12T15:12:41;3.58;;;3.28;;
9986;SDS011;5033;46.310;11.214;2023-02-12T15:15:14;2.85;;;2.65;;
9986;SDS011;5033;46.310;11.214;2023-02-12T15:17:50;3.00;;;2.80;;
9986;SDS011;5033;46.310;11.214;2023-02-12T15:20:23;2.67;;;2.47;;
9986;SDS011;5033;46.310;11.214;2023-02-12T15:22:56;3.80;;;2.85;;
9986;SDS011;5033;46.310;11.214;2023-02-12T15:25:24;2.88;;;2.67;;
9986;SDS011;5033;46.310;11.214;2023-02-12T15:27:53;2.90;;;2.70;;
9986;SDS011;5033;46.310;11.214;2023-02-12T15:30:23;2.70;;;2.50;;
9986;SDS011;5033;46.310;11.214;2023-02-12T15:32:53;3.03;;;2.72;;
9986;SDS011;5033;46.310;11.214;2023-02-12T15:35:25;2.90;;;2.70;;
9986;SDS011;5033;46.310;11.214;2023-02-12T15:37:54;3.28;;;2.97;;
9986;SDS011;5033;46.310;11.214;2023-02-12T15:40:24;3.83;;;2.90;;
9986;SDS011;5033;46.310;11.214;2023-02-12T15:42:52;3.83;;;3.50;;
9986;SDS011;5033;46.310;11.214;2023-02-12T15:45:22;4.00;;;3.70;;
9986;SDS011;5033;46.310;11.214;2023-02-12T15:48:01;4.10;;;3.80;;
9986;SDS011;5033;46.310;11.214;2023-02-12T15:50:43;4.07;;;3.72;;
9986;SDS011;5033;46.310;11.214;2023-02-12T15:53:15;4.25;;;3.85;;
9986;SDS011;5033;46.310;11.214;2023-02-12T15:55:44;4.47;;;4.05;;
9986;SDS011;5033;46.310;11.214;2023-02-12T15:58:19;6.00;;;4.30;;